Time;durP1;ratioP1;P1;durP2;ratioP2;P2;SDS_P1;SDS_P2;PMS_P1;PMS_P2;Temp;Humidity;BMP_temperature;BMP_pressure;BME280_temperature;BME280_humidity;BME280_pressure;Samples;Min_cycle;Max_cycle;Signal;HPM_P1;HPM_P2
2023/09/10 00:01:10;;;;;;;48.73;43.63;;;;;;;;;;5028564;28;20491;-62
2023/09/10 00:03:36;;;;;;;118.50;76.57;;;;;;;;;;5027888;28;20041;-61
2023/09/10 00:06:06;;;;;;;141.27;75.57;;;;;;;;;;5028919;28;20103;-61
2023/09/10 00:08:32;;;;;;;65.53;49.93;;;;;;;;;;5028999;28;20098;-61
2023/09/10 00:10:58;;;;;;;51.13;41.93;;;;;;;;;;5028774;28;20501;-61
2023/09/10 00:13:25;;;;;;;80.47;62.33;;;;;;;;;;5028587;28;20042;-61
2023/09/10 00:15:51;;;;;;;61.00;53.23;;;;;;;;;;5028642;28;20106;-61
2023/09/10 00:18:18;;;;;;;57.97;51.70;;;;;;;;;;5028655;28;20102;-61
2023/09/10 00:20:44;;;;;;;74.77;65.27;;;;;;;;;;5027188;28;20057;-61
2023/09/10 00:23:10;;;;;;;71.57;63.00;;;;;;;;;;5028487;28;20813;-61
2023/09/10 00:25:36;;;;;;;61.43;54.97;;;;;;;;;;5028069;28;20049;-61
2023/09/10 00:28:02;;;;;;;63.87;56.70;;;;;;;;;;5028109;28;20042;-61
2023/09/10 00:30:28;;;;;;;82.77;66.63;;;;;;;;;;5028483;28;20044;-61
2023/09/10 00:32:55;;;;;;;57.73;50.60;;;;;;;;;;5027718;28;20045;-62
2023/09/10 00:35:21;;;;;;;73.30;60.47;;;;;;;;;;5026185;28;20053;-61
2023/09/10 00:37:47;;;;;;;79.33;65.13;;;;;;;;;;5028768;28;20064;-61
2023/09/10 00:40:13;;;;;;;66.23;53.97;;;;;;;;;;5028482;28;20054;-61
2023/09/10 00:42:39;;;;;;;68.17;56.63;;;;;;;;;;5027837;28;20119;-61
2023/09/10 00:45:06;;;;;;;37.97;34.27;;;;;;;;;;5027351;28;20049;-61
2023/09/10 00:47:32;;;;;;;39.70;35.63;;;;;;;;;;5028432;28;20511;-61
2023/09/10 00:49:59;;;;;;;61.47;50.17;;;;;;;;;;5027670;28;20046;-61
2023/09/10 00:52:26;;;;;;;60.93;53.63;;;;;;;;;;5028041;28;20092;-61
2023/09/10 00:54:52;;;;;;;59.33;51.83;;;;;;;;;;5028205;28;20411;-62
2023/09/10 00:57:19;;;;;;;50.40;44.90;;;;;;;;;;5028142;28;20081;-61
2023/09/10 00:59:45;;;;;;;37.93;33.90;;;;;;;;;;5027737;28;20038;-62
2023/09/10 01:02:13;;;;;;;43.67;37.80;;;;;;;;;;5027664;28;20570;-61
2023/09/10 01:04:40;;;;;;;43.77;37.70;;;;;;;;;;5029229;28;20049;-61
2023/09/10 01:07:07;;;;;;;48.10;40.53;;;;;;;;;;5031908;28;20133;-61
2023/09/10 01:09:33;;;;;;;56.97;46.90;;;;;;;;;;5032075;28;20482;-61
2023/09/10 01:12:05;;;;;;;62.73;51.33;;;;;;;;;;5030801;28;20169;-61
2023/09/10 01:14:57;;;;;;;59.40;50.35;;;;;;;;;;5031675;28;20043;-61
2023/09/10 01:17:46;;;;;;;70.23;56.20;;;;;;;;;;5023477;28;20052;-61
2023/09/10 01:20:31;;;;;;;56.83;49.57;;;;;;;;;;5030857;28;20480;-61
2023/09/10 01:23:04;;;;;;;48.87;43.83;;;;;;;;;;5031436;28;20128;-61
2023/09/10 01:25:32;;;;;;;50.72;45.75;;;;;;;;;;5031120;28;20054;-61
2023/09/10 01:27:58;;;;;;;64.60;54.63;;;;;;;;;;5031627;28;20416;-61
2023/09/10 01:30:24;;;;;;;53.93;48.13;;;;;;;;;;5031429;28;20061;-61
2023/09/10 01:32:59;;;;;;;58.23;52.13;;;;;;;;;;5031407;28;20089;-61
2023/09/10 01:35:38;;;;;;;69.13;55.97;;;;;;;;;;5030370;28;20041;-61
2023/09/10 01:38:16;;;;;;;55.97;48.87;;;;;;;;;;5030698;28;20092;-61
2023/09/10 01:40:46;;;;;;;62.93;49.90;;;;;;;;;;5030464;28;20170;-61
2023/09/10 01:43:12;;;;;;;49.77;44.57;;;;;;;;;;5029915;28;20045;-61
2023/09/10 01:45:39;;;;;;;50.17;45.13;;;;;;;;;;5029768;28;20033;-61
2023/09/10 01:48:05;;;;;;;54.17;48.40;;;;;;;;;;5030834;28;20061;-61
2023/09/10 01:50:31;;;;;;;57.73;51.00;;;;;;;;;;5031423;28;20045;-61
2023/09/10 01:52:58;;;;;;;68.20;58.27;;;;;;;;;;5030897;28;20045;-61
2023/09/10 01:55:24;;;;;;;55.27;49.37;;;;;;;;;;5031436;28;20041;-61
2023/09/10 01:57:50;;;;;;;52.20;46.67;;;;;;;;;;5030783;28;20048;-61
2023/09/10 02:00:16;;;;;;;71.20;60.57;;;;;;;;;;5030715;28;20042;-61
2023/09/10 02:02:42;;;;;;;82.33;66.97;;;;;;;;;;5030993;28;20041;-61
2023/09/10 02:05:08;;;;;;;62.60;52.90;;;;;;;;;;5031099;28;20046;-61
2023/09/10 02:07:34;;;;;;;85.37;68.00;;;;;;;;;;5030504;28;20048;-61
2023/09/10 02:10:00;;;;;;;88.13;66.70;;;;;;;;;;5028493;28;20037;-61
2023/09/10 02:12:26;;;;;;;76.97;61.97;;;;;;;;;;5030841;28;20045;-61
2023/09/10 02:14:52;;;;;;;101.00;71.43;;;;;;;;;;5030500;28;20503;-61
2023/09/10 02:17:18;;;;;;;89.37;65.23;;;;;;;;;;5029334;28;20049;-61
2023/09/10 02:19:44;;;;;;;104.37;73.37;;;;;;;;;;5030426;28;20041;-61
2023/09/10 02:22:10;;;;;;;96.53;72.07;;;;;;;;;;5030248;28;20487;-61
2023/09/10 02:24:36;;;;;;;127.73;88.93;;;;;;;;;;5030515;28;20088;-61
2023/09/10 02:27:02;;;;;;;99.73;75.30;;;;;;;;;;5029249;28;20416;-61
2023/09/10 02:29:28;;;;;;;120.87;83.00;;;;;;;;;;5028133;28;20052;-61
2023/09/10 02:31:54;;;;;;;99.03;70.97;;;;;;;;;;5030508;28;20080;-62
2023/09/10 02:34:20;;;;;;;103.60;71.87;;;;;;;;;;5030416;28;20550;-62
2023/09/10 02:36:46;;;;;;;94.73;66.60;;;;;;;;;;5030470;28;20052;-61
2023/09/10 02:39:12;;;;;;;83.80;63.17;;;;;;;;;;5029810;28;20045;-61
2023/09/10 02:41:38;;;;;;;104.63;72.37;;;;;;;;;;5030272;28;20062;-61
2023/09/10 02:44:04;;;;;;;98.53;68.63;;;;;;;;;;5029877;28;20447;-62
2023/09/10 02:46:30;;;;;;;102.13;73.87;;;;;;;;;;5030181;28;20496;-61
2023/09/10 02:48:56;;;;;;;116.47;77.17;;;;;;;;;;5029596;28;20103;-61
2023/09/10 02:51:22;;;;;;;98.83;70.47;;;;;;;;;;5029422;28;20053;-61
2023/09/10 02:53:48;;;;;;;109.27;78.73;;;;;;;;;;5028461;28;20049;-61
2023/09/10 02:56:15;;;;;;;116.60;77.73;;;;;;;;;;5029374;28;20492;-61
2023/09/10 02:58:41;;;;;;;129.13;87.80;;;;;;;;;;5029974;28;20045;-61
2023/09/10 03:01:07;;;;;;;122.73;85.67;;;;;;;;;;5027694;28;20076;-61
2023/09/10 03:03:33;;;;;;;113.17;74.27;;;;;;;;;;5029984;28;20073;-61
2023/09/10 03:05:59;;;;;;;107.10;74.07;;;;;;;;;;5030090;28;20065;-61
2023/09/10 03:08:25;;;;;;;104.17;72.47;;;;;;;;;;5030153;28;20099;-61
2023/09/10 03:10:51;;;;;;;96.83;68.43;;;;;;;;;;5028203;28;20045;-61
2023/09/10 03:13:17;;;;;;;118.73;81.83;;;;;;;;;;5029568;28;20102;-61
2023/09/10 03:15:47;;;;;;;120.97;79.97;;;;;;;;;;5030015;28;20079;-61
2023/09/10 03:18:13;;;;;;;114.47;80.53;;;;;;;;;;5028601;28;20567;-61
2023/09/10 03:20:39;;;;;;;101.17;74.47;;;;;;;;;;5028850;28;20136;-61
2023/09/10 03:23:06;;;;;;;97.30;73.00;;;;;;;;;;5029160;28;20041;-62
2023/09/10 03:25:35;;;;;;;92.73;69.97;;;;;;;;;;5028637;28;20514;-61
2023/09/10 03:28:02;;;;;;;91.33;69.50;;;;;;;;;;5028067;28;20045;-61
2023/09/10 03:30:27;;;;;;;97.40;67.60;;;;;;;;;;5029096;28;20412;-61
2023/09/10 03:32:53;;;;;;;100.87;70.70;;;;;;;;;;5028288;28;20053;-61
2023/09/10 03:35:19;;;;;;;100.97;73.00;;;;;;;;;;5028750;28;20450;-61
2023/09/10 03:37:45;;;;;;;103.60;71.57;;;;;;;;;;5029595;28;20058;-62
2023/09/10 03:40:12;;;;;;;92.47;71.23;;;;;;;;;;5028142;28;20049;-61
2023/09/10 03:42:37;;;;;;;85.47;67.67;;;;;;;;;;5027479;28;20050;-61
2023/09/10 03:45:04;;;;;;;84.87;66.50;;;;;;;;;;5028722;28;20048;-61
2023/09/10 03:47:33;;;;;;;93.03;71.73;;;;;;;;;;5029418;28;20053;-61
2023/09/10 03:49:59;;;;;;;95.53;70.27;;;;;;;;;;5028246;28;20049;-61
2023/09/10 03:52:25;;;;;;;108.60;74.47;;;;;;;;;;5028901;28;20408;-61
2023/09/10 03:54:51;;;;;;;104.00;74.17;;;;;;;;;;5028582;28;20125;-61
2023/09/10 03:57:17;;;;;;;83.63;64.33;;;;;;;;;;5028725;28;20206;-61
2023/09/10 03:59:43;;;;;;;77.97;60.93;;;;;;;;;;5028135;28;20041;-61
2023/09/10 04:02:09;;;;;;;103.40;76.57;;;;;;;;;;5029302;28;20049;-61
2023/09/10 04:04:36;;;;;;;106.37;69.83;;;;;;;;;;5028986;28;20094;-62
2023/09/10 04:07:02;;;;;;;104.27;68.37;;;;;;;;;;5028753;28;20049;-61
2023/09/10 04:09:29;;;;;;;114.17;72.13;;;;;;;;;;5027479;28;20454;-61
2023/09/10 04:11:55;;;;;;;119.27;74.23;;;;;;;;;;5028373;28;20531;-61
2023/09/10 04:14:21;;;;;;;117.77;69.73;;;;;;;;;;5029040;28;20045;-62
2023/09/10 04:16:47;;;;;;;119.73;73.53;;;;;;;;;;5028220;28;20038;-61
2023/09/10 04:19:13;;;;;;;128.00;79.53;;;;;;;;;;5027969;28;20041;-61
2023/09/10 04:21:39;;;;;;;73.97;52.17;;;;;;;;;;5028465;28;20100;-61
2023/09/10 04:24:05;;;;;;;109.80;68.57;;;;;;;;;;5028573;28;20051;-61
2023/09/10 04:26:31;;;;;;;154.70;90.40;;;;;;;;;;5028567;28;20555;-61
2023/09/10 04:28:58;;;;;;;137.07;80.37;;;;;;;;;;5027666;28;20080;-61
2023/09/10 04:31:24;;;;;;;83.47;58.37;;;;;;;;;;5028165;28;20049;-61
2023/09/10 04:33:50;;;;;;;74.77;52.20;;;;;;;;;;5028588;28;20499;-61
2023/09/10 04:36:16;;;;;;;81.40;56.50;;;;;;;;;;5028488;28;20073;-61
2023/09/10 04:38:42;;;;;;;61.37;51.87;;;;;;;;;;5028232;28;20038;-61
2023/09/10 04:41:08;;;;;;;63.77;53.77;;;;;;;;;;5031664;28;20056;-61
2023/09/10 04:43:34;;;;;;;74.87;57.73;;;;;;;;;;5031856;28;20081;-61
2023/09/10 04:46:00;;;;;;;103.03;69.73;;;;;;;;;;5032330;28;20458;-62
2023/09/10 04:48:25;;;;;;;94.40;65.80;;;;;;;;;;5032539;28;20042;-61
2023/09/10 04:50:51;;;;;;;63.77;53.83;;;;;;;;;;5030718;28;20084;-61
2023/09/10 04:53:17;;;;;;;115.97;73.37;;;;;;;;;;5032135;28;20041;-62
2023/09/10 04:55:43;;;;;;;178.77;100.33;;;;;;;;;;5032460;28;20042;-61
2023/09/10 04:58:11;;;;;;;121.13;85.47;;;;;;;;;;5031769;28;20495;-61
2023/09/10 05:00:39;;;;;;;116.37;82.33;;;;;;;;;;5031516;28;20042;-61
2023/09/10 05:03:05;;;;;;;112.37;72.07;;;;;;;;;;5031094;28;20107;-62
2023/09/10 05:05:31;;;;;;;111.17;77.23;;;;;;;;;;5031653;28;20037;-61
2023/09/10 05:07:57;;;;;;;103.23;70.83;;;;;;;;;;5031052;28;20128;-61
2023/09/10 05:10:23;;;;;;;107.03;72.57;;;;;;;;;;5029539;28;20049;-61
2023/09/10 05:12:52;;;;;;;147.43;89.00;;;;;;;;;;5031607;28;20049;-61
2023/09/10 05:15:18;;;;;;;186.80;104.17;;;;;;;;;;5031122;28;20669;-61
2023/09/10 05:17:44;;;;;;;147.67;86.33;;;;;;;;;;5030622;28;20159;-61
2023/09/10 05:20:10;;;;;;;64.97;51.60;;;;;;;;;;5030437;28;20072;-62
2023/09/10 05:22:36;;;;;;;74.93;57.83;;;;;;;;;;5030868;28;20492;-61
2023/09/10 05:25:02;;;;;;;107.07;72.03;;;;;;;;;;5031047;28;20044;-62
2023/09/10 05:27:28;;;;;;;78.87;57.97;;;;;;;;;;5031866;28;20049;-61
2023/09/10 05:29:54;;;;;;;93.53;66.53;;;;;;;;;;5031133;28;20045;-61
2023/09/10 05:32:20;;;;;;;110.50;70.80;;;;;;;;;;5031623;28;20077;-61
2023/09/10 05:34:46;;;;;;;96.97;68.53;;;;;;;;;;5029886;28;20046;-61
2023/09/10 05:37:12;;;;;;;105.03;69.37;;;;;;;;;;5031455;28;20325;-62
2023/09/10 05:39:38;;;;;;;125.70;81.33;;;;;;;;;;5031095;28;20041;-61
2023/09/10 05:42:04;;;;;;;127.07;80.10;;;;;;;;;;5031242;28;20393;-61
2023/09/10 05:44:30;;;;;;;98.40;65.97;;;;;;;;;;5030397;28;20045;-61
2023/09/10 05:46:56;;;;;;;98.57;72.07;;;;;;;;;;5011226;28;20414;-61
2023/09/10 05:49:22;;;;;;;91.07;65.83;;;;;;;;;;5011627;28;20045;-61
2023/09/10 05:51:48;;;;;;;95.27;69.43;;;;;;;;;;5030451;28;20503;-61
2023/09/10 05:54:14;;;;;;;89.00;66.20;;;;;;;;;;5030493;28;20060;-61
2023/09/10 05:56:40;;;;;;;99.10;70.90;;;;;;;;;;5030425;28;20095;-61
2023/09/10 05:59:06;;;;;;;124.33;79.10;;;;;;;;;;5030619;28;20045;-61
2023/09/10 06:01:32;;;;;;;101.87;70.73;;;;;;;;;;5031098;28;20430;-61
2023/09/10 06:03:59;;;;;;;87.43;66.27;;;;;;;;;;5029580;28;20041;-61
2023/09/10 06:06:27;;;;;;;120.07;77.80;;;;;;;;;;5030509;28;20050;-61
2023/09/10 06:08:53;;;;;;;122.10;79.93;;;;;;;;;;5030736;28;20095;-62
2023/09/10 06:11:19;;;;;;;125.60;83.73;;;;;;;;;;5029259;28;20293;-62
2023/09/10 06:13:45;;;;;;;114.07;78.13;;;;;;;;;;5029912;28;20057;-61
2023/09/10 06:16:11;;;;;;;123.57;81.50;;;;;;;;;;5029838;28;20377;-61
2023/09/10 06:18:37;;;;;;;131.93;86.87;;;;;;;;;;5028533;28;20041;-61
2023/09/10 06:21:03;;;;;;;150.00;91.03;;;;;;;;;;5030028;28;20132;-61
2023/09/10 06:23:29;;;;;;;166.13;100.73;;;;;;;;;;5030261;28;20053;-61
2023/09/10 06:25:55;;;;;;;143.53;89.83;;;;;;;;;;5028592;28;20038;-61
2023/09/10 06:28:24;;;;;;;153.70;95.87;;;;;;;;;;5030155;28;20048;-61
2023/09/10 06:30:50;;;;;;;166.80;101.30;;;;;;;;;;5029624;28;20111;-61
2023/09/10 06:33:16;;;;;;;137.20;90.80;;;;;;;;;;5030019;28;20057;-61
2023/09/10 06:35:42;;;;;;;156.90;98.83;;;;;;;;;;5028937;28;20045;-61
2023/09/10 06:38:08;;;;;;;146.70;94.37;;;;;;;;;;5029542;28;20108;-61
2023/09/10 06:40:36;;;;;;;164.57;103.57;;;;;;;;;;5033748;28;20067;-61
2023/09/10 06:43:04;;;;;;;108.97;81.10;;;;;;;;;;5049554;28;20186;-61
2023/09/10 06:45:30;;;;;;;111.80;85.43;;;;;;;;;;5029480;28;20050;-61
2023/09/10 06:47:56;;;;;;;137.10;96.83;;;;;;;;;;5029208;28;20500;-61
2023/09/10 06:50:22;;;;;;;95.93;78.30;;;;;;;;;;5026598;28;20084;-61
2023/09/10 06:52:48;;;;;;;138.03;99.07;;;;;;;;;;5030898;28;20508;-61
2023/09/10 06:55:14;;;;;;;89.00;77.00;;;;;;;;;;5050165;28;20045;-62
2023/09/10 06:57:40;;;;;;;94.47;76.27;;;;;;;;;;5033373;28;20464;-61
2023/09/10 07:00:06;;;;;;;98.37;79.27;;;;;;;;;;5032812;28;20092;-61
2023/09/10 07:02:32;;;;;;;104.10;81.80;;;;;;;;;;5028578;28;20041;-61
2023/09/10 07:04:58;;;;;;;76.50;67.60;;;;;;;;;;5029928;28;20051;-61
2023/09/10 07:07:24;;;;;;;74.40;66.30;;;;;;;;;;5029941;28;20559;-61
2023/09/10 07:09:51;;;;;;;72.63;63.77;;;;;;;;;;5029047;28;20045;-61
2023/09/10 07:12:17;;;;;;;72.93;64.37;;;;;;;;;;5029126;28;20132;-61
2023/09/10 07:14:44;;;;;;;85.17;71.13;;;;;;;;;;5029174;28;20140;-61
2023/09/10 07:17:10;;;;;;;76.97;67.57;;;;;;;;;;5027913;28;20058;-61
2023/09/10 07:19:36;;;;;;;81.33;70.03;;;;;;;;;;5028856;28;20511;-61
2023/09/10 07:22:02;;;;;;;70.57;62.93;;;;;;;;;;5028126;28;20461;-61
2023/09/10 07:24:28;;;;;;;68.67;61.17;;;;;;;;;;5029481;28;20065;-61
2023/09/10 07:26:54;;;;;;;60.10;53.87;;;;;;;;;;5028567;28;20042;-61
2023/09/10 07:29:20;;;;;;;57.30;51.37;;;;;;;;;;5027216;28;20069;-62
2023/09/10 07:31:46;;;;;;;59.10;52.87;;;;;;;;;;5027616;28;20045;-61
2023/09/10 07:34:12;;;;;;;53.67;47.83;;;;;;;;;;5026956;28;20531;-61
2023/09/10 07:36:38;;;;;;;49.23;43.70;;;;;;;;;;5026194;28;20653;-61
2023/09/10 07:39:05;;;;;;;46.43;41.70;;;;;;;;;;5027326;28;20420;-62
2023/09/10 07:41:32;;;;;;;47.97;42.97;;;;;;;;;;5026775;28;20061;-61
2023/09/10 07:43:59;;;;;;;43.10;38.90;;;;;;;;;;5027503;28;20049;-61
2023/09/10 07:46:25;;;;;;;43.20;38.80;;;;;;;;;;5028984;28;20099;-61
2023/09/10 07:48:52;;;;;;;42.47;38.07;;;;;;;;;;5029056;28;20045;-61
2023/09/10 07:51:18;;;;;;;42.57;38.37;;;;;;;;;;5028238;28;20577;-62
2023/09/10 07:53:44;;;;;;;41.23;36.80;;;;;;;;;;5028014;28;20049;-62
2023/09/10 07:56:10;;;;;;;38.93;35.00;;;;;;;;;;5028988;28;20068;-61
2023/09/10 07:58:36;;;;;;;37.13;33.47;;;;;;;;;;5028159;28;20046;-61
2023/09/10 08:01:02;;;;;;;39.30;35.30;;;;;;;;;;5028620;28;20049;-61
2023/09/10 08:03:28;;;;;;;38.07;33.97;;;;;;;;;;5028592;28;20057;-62
2023/09/10 08:05:55;;;;;;;38.10;34.13;;;;;;;;;;5028340;28;20041;-62
2023/09/10 08:08:21;;;;;;;36.57;32.67;;;;;;;;;;5028527;28;20123;-62
2023/09/10 08:10:47;;;;;;;38.07;34.13;;;;;;;;;;5028845;28;20042;-61
2023/09/10 08:13:13;;;;;;;38.27;34.47;;;;;;;;;;5028250;28;20089;-62
2023/09/10 08:15:42;;;;;;;35.97;32.30;;;;;;;;;;5028341;28;20080;-62
2023/09/10 08:18:10;;;;;;;38.63;34.87;;;;;;;;;;5028336;28;20526;-61
2023/09/10 08:20:37;;;;;;;37.37;32.27;;;;;;;;;;5028287;28;20084;-62
2023/09/10 08:23:04;;;;;;;35.47;31.90;;;;;;;;;;5028346;28;20057;-62
2023/09/10 08:25:29;;;;;;;36.53;32.93;;;;;;;;;;5028343;28;20115;-62
2023/09/10 08:27:56;;;;;;;36.30;32.70;;;;;;;;;;5028068;28;20500;-62
2023/09/10 08:30:22;;;;;;;33.40;30.20;;;;;;;;;;5028356;28;20463;-62
2023/09/10 08:32:49;;;;;;;32.27;28.77;;;;;;;;;;5028153;28;20064;-62
2023/09/10 08:35:17;;;;;;;31.53;28.23;;;;;;;;;;5028185;28;20128;-62
2023/09/10 08:37:43;;;;;;;32.30;29.00;;;;;;;;;;5028005;28;20492;-62
2023/09/10 08:40:10;;;;;;;31.40;28.27;;;;;;;;;;5027624;28;20061;-62
2023/09/10 08:42:40;;;;;;;28.60;25.50;;;;;;;;;;5028061;28;20057;-62
2023/09/10 08:45:10;;;;;;;28.77;25.83;;;;;;;;;;5028096;28;20076;-62
2023/09/10 08:47:40;;;;;;;28.55;25.48;;;;;;;;;;5028068;28;20049;-62
2023/09/10 08:50:08;;;;;;;27.48;24.65;;;;;;;;;;5027719;28;20124;-62
2023/09/10 08:52:35;;;;;;;28.60;25.67;;;;;;;;;;5027599;28;20173;-62
2023/09/10 08:55:01;;;;;;;26.30;23.60;;;;;;;;;;5028171;28;20045;-61
2023/09/10 08:57:29;;;;;;;25.55;22.95;;;;;;;;;;5028157;28;20081;-62
2023/09/10 08:59:56;;;;;;;26.33;23.73;;;;;;;;;;5027882;28;20389;-62
2023/09/10 09:02:22;;;;;;;26.58;23.67;;;;;;;;;;5028116;28;20037;-62
2023/09/10 09:04:48;;;;;;;24.65;22.25;;;;;;;;;;5027623;28;20041;-62
2023/09/10 09:07:15;;;;;;;27.30;23.45;;;;;;;;;;5027967;28;20048;-62
2023/09/10 09:09:42;;;;;;;26.33;23.77;;;;;;;;;;5028172;28;20041;-61
2023/09/10 09:12:12;;;;;;;22.42;20.00;;;;;;;;;;5026835;28;20463;-61
2023/09/10 09:14:42;;;;;;;24.60;20.23;;;;;;;;;;5027809;28;20045;-63
2023/09/10 09:17:10;;;;;;;24.40;20.45;;;;;;;;;;5027622;28;20046;-61
2023/09/10 09:19:37;;;;;;;22.60;19.77;;;;;;;;;;5027861;28;20045;-62
2023/09/10 09:22:04;;;;;;;21.48;19.13;;;;;;;;;;5027636;28;20530;-61
2023/09/10 09:24:31;;;;;;;18.90;17.23;;;;;;;;;;5028027;28;20046;-62
2023/09/10 09:26:58;;;;;;;20.35;18.27;;;;;;;;;;5030504;28;20046;-62
2023/09/10 09:29:24;;;;;;;21.27;19.02;;;;;;;;;;5031540;28;20046;-63
2023/09/10 09:31:50;;;;;;;20.05;18.20;;;;;;;;;;5031407;28;20034;-62
2023/09/10 09:34:17;;;;;;;20.23;18.25;;;;;;;;;;5031087;28;20107;-62
2023/09/10 09:36:43;;;;;;;21.35;19.25;;;;;;;;;;5030063;28;20081;-62
2023/09/10 09:39:11;;;;;;;20.73;18.88;;;;;;;;;;5031005;28;20038;-62
2023/09/10 09:41:37;;;;;;;20.70;18.60;;;;;;;;;;5030617;28;20152;-62
2023/09/10 09:44:03;;;;;;;21.70;19.50;;;;;;;;;;5031085;28;20547;-62
2023/09/10 09:46:33;;;;;;;20.42;18.50;;;;;;;;;;5031152;28;20041;-62
2023/09/10 09:49:00;;;;;;;24.08;18.23;;;;;;;;;;5030672;28;20499;-62
2023/09/10 09:51:27;;;;;;;19.88;17.77;;;;;;;;;;5030500;28;20136;-62
2023/09/10 09:53:53;;;;;;;20.42;17.65;;;;;;;;;;5030926;28;20446;-61
2023/09/10 09:56:21;;;;;;;18.02;16.27;;;;;;;;;;5031084;28;20496;-61
2023/09/10 09:58:47;;;;;;;21.67;18.88;;;;;;;;;;5030595;28;20053;-61
2023/09/10 10:01:13;;;;;;;18.70;16.92;;;;;;;;;;5030751;28;20179;-61
2023/09/10 10:03:40;;;;;;;20.73;17.60;;;;;;;;;;5029962;28;20555;-61
2023/09/10 10:06:07;;;;;;;18.88;17.13;;;;;;;;;;5030545;28;20100;-61
2023/09/10 10:08:33;;;;;;;22.48;14.52;;;;;;;;;;5029339;28;20103;-61
2023/09/10 10:10:59;;;;;;;16.92;15.35;;;;;;;;;;5030247;28;20051;-61
2023/09/10 10:13:26;;;;;;;18.33;15.68;;;;;;;;;;5030525;28;20085;-61
2023/09/10 10:15:54;;;;;;;15.52;13.93;;;;;;;;;;5029685;28;20054;-61
2023/09/10 10:18:21;;;;;;;16.75;15.07;;;;;;;;;;5030094;28;20053;-61
2023/09/10 10:20:49;;;;;;;22.20;15.68;;;;;;;;;;5030359;28;20484;-61
2023/09/10 10:23:15;;;;;;;18.60;16.05;;;;;;;;;;5030513;28;20520;-61
2023/09/10 10:25:45;;;;;;;16.35;14.00;;;;;;;;;;5030603;28;20037;-61
2023/09/10 10:28:12;;;;;;;19.23;15.25;;;;;;;;;;5030355;28;20045;-61
2023/09/10 10:30:39;;;;;;;20.17;15.05;;;;;;;;;;5030170;28;20056;-61
2023/09/10 10:33:07;;;;;;;16.42;14.82;;;;;;;;;;5029603;28;20046;-61
2023/09/10 10:35:36;;;;;;;18.00;12.73;;;;;;;;;;5029902;28;20049;-61
2023/09/10 10:38:03;;;;;;;15.75;11.27;;;;;;;;;;5029293;28;20037;-61
2023/09/10 10:40:36;;;;;;;25.30;14.25;;;;;;;;;;5029749;28;20073;-61
2023/09/10 10:43:07;;;;;;;17.95;12.85;;;;;;;;;;5030067;28;20515;-62
2023/09/10 10:45:33;;;;;;;14.95;13.13;;;;;;;;;;5029726;28;20571;-62
2023/09/10 10:48:01;;;;;;;16.83;11.80;;;;;;;;;;5029941;28;20388;-62
2023/09/10 10:50:27;;;;;;;17.27;9.85;;;;;;;;;;5029684;28;20042;-62
2023/09/10 10:53:02;;;;;;;14.80;9.63;;;;;;;;;;5029424;28;20056;-62
2023/09/10 10:55:28;;;;;;;12.70;9.77;;;;;;;;;;5029791;28;20045;-62
2023/09/10 10:57:55;;;;;;;23.75;10.85;;;;;;;;;;5029348;28;20054;-62
2023/09/10 11:00:21;;;;;;;15.35;9.50;;;;;;;;;;5029533;28;20041;-62
2023/09/10 11:03:08;;;;;;;16.30;10.45;;;;;;;;;;5029694;28;20060;-62
2023/09/10 11:05:57;;;;;;;16.40;9.77;;;;;;;;;;5029224;28;20050;-62
2023/09/10 11:08:39;;;;;;;15.13;9.50;;;;;;;;;;5029374;28;20103;-62
2023/09/10 11:11:08;;;;;;;15.00;9.98;;;;;;;;;;5029664;28;20045;-62
2023/09/10 11:13:54;;;;;;;16.85;9.32;;;;;;;;;;5029550;28;20050;-62
2023/09/10 11:16:20;;;;;;;18.75;9.25;;;;;;;;;;5028632;28;20099;-62
2023/09/10 11:18:46;;;;;;;15.65;9.90;;;;;;;;;;5029464;28;20558;-62
2023/09/10 11:21:12;;;;;;;14.48;9.40;;;;;;;;;;5029319;28;20502;-62
2023/09/10 11:23:58;;;;;;;15.70;9.10;;;;;;;;;;5029456;28;20397;-62
2023/09/10 11:26:27;;;;;;;16.75;8.93;;;;;;;;;;5028978;28;20459;-62
2023/09/10 11:28:54;;;;;;;24.00;10.70;;;;;;;;;;5028909;28;20508;-62
2023/09/10 11:34:23;;;;;;;19.13;9.55;;;;;;;;;;5028302;28;20057;-62
2023/09/10 11:36:56;;;;;;;19.92;8.35;;;;;;;;;;5029270;28;20519;-62
2023/09/10 11:39:22;;;;;;;12.23;7.88;;;;;;;;;;5028818;28;20630;-62
2023/09/10 11:41:50;;;;;;;13.77;8.10;;;;;;;;;;5028909;28;20053;-62
2023/09/10 11:44:16;;;;;;;20.35;9.15;;;;;;;;;;5027054;28;20045;-62
2023/09/10 11:46:42;;;;;;;13.35;7.47;;;;;;;;;;5028826;28;20057;-62
2023/09/10 11:49:08;;;;;;;15.48;8.48;;;;;;;;;;5028326;28;20042;-62
2023/09/10 11:51:44;;;;;;;18.48;7.43;;;;;;;;;;5028714;28;20041;-62
2023/09/10 11:54:16;;;;;;;17.75;7.70;;;;;;;;;;5028746;28;20103;-62
2023/09/10 11:56:42;;;;;;;20.23;7.95;;;;;;;;;;5028753;28;20041;-62
2023/09/10 11:59:08;;;;;;;21.08;7.47;;;;;;;;;;5028348;28;20081;-62
2023/09/10 12:01:34;;;;;;;15.55;6.80;;;;;;;;;;5028240;28;20095;-61
2023/09/10 12:04:01;;;;;;;19.65;7.80;;;;;;;;;;5028436;28;20046;-61
2023/09/10 12:06:28;;;;;;;19.40;7.68;;;;;;;;;;5029038;28;20053;-61
2023/09/10 12:08:54;;;;;;;18.15;7.68;;;;;;;;;;5027791;28;20053;-61
2023/09/10 12:11:21;;;;;;;20.83;7.53;;;;;;;;;;5028494;28;20060;-62
2023/09/10 12:13:47;;;;;;;20.50;8.07;;;;;;;;;;5028220;28;20542;-61
2023/09/10 12:16:13;;;;;;;24.08;8.23;;;;;;;;;;5028213;28;20103;-62
2023/09/10 12:18:39;;;;;;;26.52;7.50;;;;;;;;;;5028313;28;20069;-62
2023/09/10 12:21:05;;;;;;;34.17;9.10;;;;;;;;;;5028558;28;20462;-62
2023/09/10 12:23:32;;;;;;;19.95;9.00;;;;;;;;;;5028304;28;20045;-62
2023/09/10 12:25:59;;;;;;;22.65;8.38;;;;;;;;;;5028240;28;20045;-62
2023/09/10 12:28:25;;;;;;;17.13;7.13;;;;;;;;;;5028082;28;20049;-62
2023/09/10 12:30:51;;;;;;;22.10;7.88;;;;;;;;;;5028033;28;20046;-62
2023/09/10 12:33:21;;;;;;;25.42;7.72;;;;;;;;;;5027891;28;20049;-63
2023/09/10 12:35:47;;;;;;;20.65;6.25;;;;;;;;;;5028824;28;20171;-63
2023/09/10 12:38:17;;;;;;;20.77;6.45;;;;;;;;;;5026793;28;20457;-62
2023/09/10 12:40:43;;;;;;;22.00;7.45;;;;;;;;;;5027945;28;20136;-62
2023/09/10 12:43:09;;;;;;;22.42;7.22;;;;;;;;;;5027355;28;20057;-62
2023/09/10 12:45:36;;;;;;;20.33;7.80;;;;;;;;;;5027678;28;20069;-62
2023/09/10 12:48:03;;;;;;;29.60;7.22;;;;;;;;;;5028158;28;20071;-62
2023/09/10 12:50:29;;;;;;;19.60;7.07;;;;;;;;;;5028129;28;20065;-62
2023/09/10 12:52:55;;;;;;;20.23;7.35;;;;;;;;;;5027471;28;20463;-62
2023/09/10 12:55:22;;;;;;;19.08;6.20;;;;;;;;;;5028393;28;20049;-62
2023/09/10 12:57:55;;;;;;;21.70;7.65;;;;;;;;;;5028175;28;20186;-62
2023/09/10 13:00:21;;;;;;;17.63;6.97;;;;;;;;;;5029189;28;20037;-62
2023/09/10 13:02:47;;;;;;;24.17;7.45;;;;;;;;;;5032086;28;20415;-62
2023/09/10 13:05:17;;;;;;;15.98;7.43;;;;;;;;;;5031096;28;20049;-62
2023/09/10 13:07:46;;;;;;;25.17;7.38;;;;;;;;;;5031964;28;20042;-62
2023/09/10 13:10:12;;;;;;;19.65;6.75;;;;;;;;;;5031903;28;20120;-62
2023/09/10 13:12:38;;;;;;;17.90;6.90;;;;;;;;;;5031865;28;20037;-62
2023/09/10 13:15:05;;;;;;;24.50;7.07;;;;;;;;;;5031629;28;20362;-62
2023/09/10 13:17:31;;;;;;;17.50;7.38;;;;;;;;;;5031124;28;20048;-62
2023/09/10 13:20:00;;;;;;;15.77;6.30;;;;;;;;;;5031592;28;20088;-62
2023/09/10 13:22:26;;;;;;;16.67;6.85;;;;;;;;;;5031847;28;20074;-62
2023/09/10 13:24:55;;;;;;;19.30;7.55;;;;;;;;;;5031729;28;20041;-61
2023/09/10 13:27:22;;;;;;;17.80;6.68;;;;;;;;;;5031636;28;20052;-62
2023/09/10 13:29:48;;;;;;;15.02;7.72;;;;;;;;;;5030876;28;20053;-62
2023/09/10 13:32:14;;;;;;;19.98;6.13;;;;;;;;;;5031560;28;20136;-62
2023/09/10 13:34:41;;;;;;;23.10;7.32;;;;;;;;;;5031342;28;20124;-61
2023/09/10 13:37:07;;;;;;;16.75;6.82;;;;;;;;;;5031501;28;20454;-62
2023/09/10 13:39:36;;;;;;;19.65;6.53;;;;;;;;;;5030662;28;20049;-62
2023/09/10 13:42:02;;;;;;;17.83;6.63;;;;;;;;;;5030998;28;20053;-62
2023/09/10 13:44:29;;;;;;;23.70;7.60;;;;;;;;;;5031392;28;20041;-62
2023/09/10 13:46:55;;;;;;;16.45;6.82;;;;;;;;;;5030998;28;20452;-62
2023/09/10 13:49:21;;;;;;;22.70;6.38;;;;;;;;;;5031431;28;20056;-62
2023/09/10 13:51:47;;;;;;;18.98;6.97;;;;;;;;;;5031158;28;20045;-62
2023/09/10 13:54:13;;;;;;;19.20;7.28;;;;;;;;;;5030718;28;20045;-62
2023/09/10 13:56:39;;;;;;;20.27;7.75;;;;;;;;;;5030460;28;20037;-62
2023/09/10 13:59:05;;;;;;;22.23;7.85;;;;;;;;;;5031164;28;20068;-62
2023/09/10 14:01:32;;;;;;;22.33;7.15;;;;;;;;;;5030748;28;20095;-62
2023/09/10 14:03:58;;;;;;;20.42;7.03;;;;;;;;;;5030340;28;20042;-62
2023/09/10 14:06:24;;;;;;;19.63;7.78;;;;;;;;;;5031178;28;20144;-61
2023/09/10 14:08:50;;;;;;;17.80;6.78;;;;;;;;;;5030370;28;20125;-61
2023/09/10 14:11:16;;;;;;;23.10;7.70;;;;;;;;;;5030153;28;20500;-62
2023/09/10 14:13:42;;;;;;;27.27;7.53;;;;;;;;;;5030781;28;20092;-62
2023/09/10 14:16:09;;;;;;;20.30;6.75;;;;;;;;;;5030249;28;20337;-62
2023/09/10 14:18:40;;;;;;;26.55;6.75;;;;;;;;;;5030238;28;20103;-62